WebCam (dist. 5.5Km Est) Villalvernia  WebCam (dist. 5.5Km Est) Villalvernia


WebCam (dist. 7Km Ovest) Basaluzzo  WebCam (dist. 7Km Ovest) Basaluzzo


WebCam (dist.13Km Ovest) Castelferro  WebCam (dist.13Km Ovest) Castelferro


WebCam (dist. 15Km Sud) Carrosio  WebCam (dist. 15Km Sud) Carrosio


Avvisi EUMETNET-METEOalarm

Non sono previsti fenomeni meteo rilevanti    Non sono presenti avvisi di allerta meteo

NOTIZIE METEO

Report METAR

   
LIMV - Alessandria
Dati ricevuti: 23-04-2018 15:55
DATI Obsoleti
Sereno  
Sereno  
   Vento: Variabile Calma
Vento: Variabile Calma
Temperatura e Condizioni Meteo: 18°C
P.to Rugiada: 13°C
Umidità: 73%
Pressione: 1019 hPa
Visibilità: oltre 10 km
Dettagli cop. nuvolosa: Sereno ft
LIMV 231355Z /////KT CAVOK 18/13 Q1019
LIMJ - Genova
Dati ricevuti: 26-04-2018 05:20
Molto nuvoloso  
Molto nuvoloso  
   Vento: Variabile 3.7 km/h
Vento: Variabile 3.7 km/h
Temperatura e Condizioni Meteo: 17°C
P.to Rugiada: 16°C
Umidità: 94%
Pressione: 1014 hPa
Copertura nuvolosa: Mostly Cloudy
Visibilità: oltre 10 km
Dettagli cop. nuvolosa: Poche nuvole 1800 ft,
Molto nuvoloso 2800 ft
LIMJ 260320Z VRB02KT 9999 FEW018 BKN028 17/16 Q1014
LIML - Milano
Dati ricevuti: 26-04-2018 05:20
Sereno  
Sereno  
   Vento: Variabile 7.4 km/h
Vento: Variabile 7.4 km/h
Temperatura e Condizioni Meteo: 16°C
P.to Rugiada: 11°C
Umidità: 72%
Pressione: 1012 hPa
Visibilità: oltre 10 km
Dettagli cop. nuvolosa: Sereno ft
LIML 260320Z VRB04KT CAVOK 16/11 Q1012 NOSIG
LIMF - Torino
Dati ricevuti: 26-04-2018 05:20
Sereno  
Sereno  
   Vento: Ovest 7.4 km/h
Vento: Ovest 7.4 km/h
Temperatura e Condizioni Meteo: 15°C
P.to Rugiada: 11°C
Umidità: 77%
Pressione: 1012 hPa
Visibilità: oltre 10 km
Dettagli cop. nuvolosa: Sereno ft
LIMF 260320Z 27004KT CAVOK 15/11 Q1012
LIRA - Roma
Dati ricevuti: 26-04-2018 05:20
Sereno  
Sereno  
   Vento: SE 5.6 km/h
Vento: SE 5.6 km/h
Temperatura e Condizioni Meteo: 13°C
P.to Rugiada: 3°C
Umidità: 51%
Pressione: 1015 hPa
Visibilità: oltre 10 km
Dettagli cop. nuvolosa: Sereno ft
LIRA 260320Z 12003KT CAVOK 13/03 Q1015
LICJ - Palermo
Dati ricevuti: 26-04-2018 05:20
Parz. nuvoloso  
Parz. nuvoloso  
   Vento: SW 11.1 km/h
Vento: SW 11.1 km/h
Temperatura e Condizioni Meteo: 16°C
P.to Rugiada: 12°C
Umidità: 77%
Pressione: 1015 hPa
Copertura nuvolosa: Partly Cloudy
Visibilità: oltre 10 km
Dettagli cop. nuvolosa: Parz. nuvoloso 200 ft
LICJ 260320Z 22006KT 9999 SCT002 16/12 Q1015

Script sviluppato da  Saratoga-weather.org Adattato per il modello da  Weerstation Leuven

Potete trovare le nostre informazioni meteo anche su:

Meteonetwork

Linea Meteo

Weather Underground

AWEKAS

European Weather Network

PWS Weather

WeatherCloud

Citizen Weather Observer Program (CWOP)

Strumentazione in uso:

Meteo-stazione
Oregon Scientific WMR300

Meteo-programma
Weather Display

Meteo-server
Samsung N220

Oregon Scientific WMR300

Weather Display

Samsung N220


Banda Musicale Pozzolese


<